LFPG/CDG METAR and TAF weather

Enter ICAO airport designator
Station Type Date Time Source
LFPG METAR 2019/08/17 11:00 UTC NOAA

LFPG 171100Z 17010KT 9999 -RA BKN008 BKN013 19/18 Q1010 TEMPO BKN005


Station Type Date Time Source
LFPG Decoded METAR 2019/08/17 11:00 UTC NOAA

Station name not available
Aug 17, 2019 - 07:00 AM EDT / 2019.08.17 1100 UTC
Wind: from the S (170 degrees) at 12 MPH (10 KT):0
Visibility: greater than 7 mile(s):0
Sky conditions: mostly cloudy
Weather: light rain
Temperature: 66 F (19 C)
Dew Point: 64 F (18 C)
Relative Humidity: 93%
Pressure (altimeter): 29.83 in. Hg (1010 hPa)
ob: LFPG 171100Z 17010KT 9999 -RA BKN008 BKN013 19/18 Q1010 TEMPO BKN005
cycle: 11

Station Type Date Time Source
LFPG TAF 2019/08/17 12:23 UTC NOAA

TAF LFPG 171100Z 1712/1818 20010KT 5000 -RA OVC008 TX21/1815Z TN19/1803Z
TEMPO 1713/1718 BKN004
TEMPO 1722/1724 BKN018
BECMG 1802/1804 20015G30KT
BECMG 1811/1813 30010KT BKN020

Example: see airport list